sensor_id;sensor_type;location;lat;lon;timestamp;pressure;altitude;pressure_sealevel;temperature;humidity
53546;BME280;39432;51.902;10.844;2023-06-14T00:01:36;99603.97;;;13.64;100.00
53546;BME280;39432;51.902;10.844;2023-06-14T00:04:06;99609.13;;;13.86;100.00
53546;BME280;39432;51.902;10.844;2023-06-14T00:06:37;99606.34;;;14.07;100.00
53546;BME280;39432;51.902;10.844;2023-06-14T00:09:08;99611.06;;;13.81;100.00
53546;BME280;39432;51.902;10.844;2023-06-14T00:11:39;99615.91;;;14.19;100.00
53546;BME280;39432;51.902;10.844;2023-06-14T00:14:09;99619.03;;;13.87;100.00
53546;BME280;39432;51.902;10.844;2023-06-14T00:16:42;99622.31;;;13.89;100.00
53546;BME280;39432;51.902;10.844;2023-06-14T00:19:12;99621.28;;;13.70;100.00
53546;BME280;39432;51.902;10.844;2023-06-14T00:21:43;99626.22;;;13.12;100.00
53546;BME280;39432;51.902;10.844;2023-06-14T00:24:13;99627.03;;;13.17;100.00
53546;BME280;39432;51.902;10.844;2023-06-14T00:26:43;99627.88;;;13.64;100.00
53546;BME280;39432;51.902;10.844;2023-06-14T00:29:13;99621.81;;;13.16;100.00
53546;BME280;39432;51.902;10.844;2023-06-14T00:31:46;99621.56;;;13.02;100.00
53546;BME280;39432;51.902;10.844;2023-06-14T00:34:15;99621.88;;;13.21;100.00
53546;BME280;39432;51.902;10.844;2023-06-14T00:36:45;99618.53;;;13.09;100.00
53546;BME280;39432;51.902;10.844;2023-06-14T00:39:15;99627.31;;;13.06;100.00
53546;BME280;39432;51.902;10.844;2023-06-14T00:41:45;99617.72;;;13.24;100.00
53546;BME280;39432;51.902;10.844;2023-06-14T00:44:16;99621.88;;;13.21;100.00
53546;BME280;39432;51.902;10.844;2023-06-14T00:46:49;99617.19;;;13.52;100.00
53546;BME280;39432;51.902;10.844;2023-06-14T00:49:22;99619.38;;;13.55;100.00
53546;BME280;39432;51.902;10.844;2023-06-14T00:51:52;99614.69;;;13.10;100.00
53546;BME280;39432;51.902;10.844;2023-06-14T00:54:22;99621.28;;;13.09;100.00
53546;BME280;39432;51.902;10.844;2023-06-14T00:56:51;99620.72;;;13.02;100.00
53546;BME280;39432;51.902;10.844;2023-06-14T00:59:21;99619.13;;;13.21;100.00
53546;BME280;39432;51.902;10.844;2023-06-14T01:01:54;99618.25;;;13.00;100.00
53546;BME280;39432;51.902;10.844;2023-06-14T01:04:45;99624.25;;;12.72;100.00
53546;BME280;39432;51.902;10.844;2023-06-14T01:07:21;99613.03;;;12.88;100.00
53546;BME280;39432;51.902;10.844;2023-06-14T01:10:02;99605.91;;;12.98;100.00
53546;BME280;39432;51.902;10.844;2023-06-14T01:12:38;99619.09;;;13.16;100.00
53546;BME280;39432;51.902;10.844;2023-06-14T01:15:10;99619.31;;;12.79;100.00
53546;BME280;39432;51.902;10.844;2023-06-14T01:17:45;99610.28;;;13.09;100.00
53546;BME280;39432;51.902;10.844;2023-06-14T01:20:19;99610.56;;;12.97;100.00
53546;BME280;39432;51.902;10.844;2023-06-14T01:22:55;99629.44;;;12.63;100.00
53546;BME280;39432;51.902;10.844;2023-06-14T01:25:25;99630.75;;;12.45;100.00
53546;BME280;39432;51.902;10.844;2023-06-14T01:27:58;99627.28;;;12.80;100.00
53546;BME280;39432;51.902;10.844;2023-06-14T01:30:29;99641.03;;;12.80;100.00
53546;BME280;39432;51.902;10.844;2023-06-14T01:33:00;99627.31;;;13.01;100.00
53546;BME280;39432;51.902;10.844;2023-06-14T01:35:31;99638.25;;;12.75;100.00
53546;BME280;39432;51.902;10.844;2023-06-14T01:38:05;99641.50;;;12.62;100.00
53546;BME280;39432;51.902;10.844;2023-06-14T01:40:36;99630.06;;;13.06;100.00
53546;BME280;39432;51.902;10.844;2023-06-14T01:43:06;99633.97;;;13.35;100.00
53546;BME280;39432;51.902;10.844;2023-06-14T01:45:36;99632.53;;;13.12;100.00
53546;BME280;39432;51.902;10.844;2023-06-14T01:48:10;99637.19;;;13.12;100.00
53546;BME280;39432;51.902;10.844;2023-06-14T01:50:40;99638.06;;;12.24;100.00
53546;BME280;39432;51.902;10.844;2023-06-14T01:53:12;99632.59;;;12.24;100.00
53546;BME280;39432;51.902;10.844;2023-06-14T01:55:42;99643.41;;;11.89;100.00
53546;BME280;39432;51.902;10.844;2023-06-14T01:58:16;99635.78;;;12.01;100.00
53546;BME280;39432;51.902;10.844;2023-06-14T02:00:46;99634.31;;;12.40;100.00
53546;BME280;39432;51.902;10.844;2023-06-14T02:03:16;99631.94;;;12.75;100.00
53546;BME280;39432;51.902;10.844;2023-06-14T02:05:46;99627.59;;;12.06;100.00
53546;BME280;39432;51.902;10.844;2023-06-14T02:08:19;99631.09;;;12.59;100.00
53546;BME280;39432;51.902;10.844;2023-06-14T02:10:49;99628.34;;;12.74;100.00
53546;BME280;39432;51.902;10.844;2023-06-14T02:13:21;99630.72;;;12.35;100.00
53546;BME280;39432;51.902;10.844;2023-06-14T02:15:50;99625.63;;;12.01;100.00
53546;BME280;39432;51.902;10.844;2023-06-14T02:18:22;99625.94;;;12.05;100.00
53546;BME280;39432;51.902;10.844;2023-06-14T02:20:52;99631.13;;;12.79;100.00
53546;BME280;39432;51.902;10.844;2023-06-14T02:23:24;99633.56;;;12.60;100.00
53546;BME280;39432;51.902;10.844;2023-06-14T02:25:54;99638.47;;;12.48;100.00
53546;BME280;39432;51.902;10.844;2023-06-14T02:28:26;99633.66;;;12.18;100.00
53546;BME280;39432;51.902;10.844;2023-06-14T02:30:55;99645.28;;;12.40;100.00
53546;BME280;39432;51.902;10.844;2023-06-14T02:33:25;99642.69;;;11.66;100.00
53546;BME280;39432;51.902;10.844;2023-06-14T02:35:55;99645.88;;;12.48;100.00
53546;BME280;39432;51.902;10.844;2023-06-14T02:38:28;99648.63;;;11.58;100.00
53546;BME280;39432;51.902;10.844;2023-06-14T02:40:58;99649.03;;;12.19;100.00
53546;BME280;39432;51.902;10.844;2023-06-14T02:43:29;99649.88;;;12.20;100.00
53546;BME280;39432;51.902;10.844;2023-06-14T02:45:59;99652.22;;;12.01;100.00
53546;BME280;39432;51.902;10.844;2023-06-14T02:48:29;99659.41;;;12.12;100.00
53546;BME280;39432;51.902;10.844;2023-06-14T02:50:59;99661.78;;;11.93;100.00
53546;BME280;39432;51.902;10.844;2023-06-14T02:53:32;99658.84;;;12.05;100.00
53546;BME280;39432;51.902;10.844;2023-06-14T02:56:02;99665.97;;;11.69;100.00
53546;BME280;39432;51.902;10.844;2023-06-14T02:58:32;99667.69;;;11.38;100.00
53546;BME280;39432;51.902;10.844;2023-06-14T03:01:02;99672.88;;;11.39;100.00
53546;BME280;39432;51.902;10.844;2023-06-14T03:03:32;99670.19;;;11.44;100.00
53546;BME280;39432;51.902;10.844;2023-06-14T03:06:03;99674.94;;;11.54;100.00
53546;BME280;39432;51.902;10.844;2023-06-14T03:08:39;99672.81;;;11.66;100.00
53546;BME280;39432;51.902;10.844;2023-06-14T03:11:14;99675.66;;;11.44;100.00
53546;BME280;39432;51.902;10.844;2023-06-14T03:13:48;99678.22;;;11.56;100.00
53546;BME280;39432;51.902;10.844;2023-06-14T03:16:18;99681.19;;;11.81;100.00
53546;BME280;39432;51.902;10.844;2023-06-14T03:18:51;99688.88;;;11.84;100.00
53546;BME280;39432;51.902;10.844;2023-06-14T03:21:24;99689.03;;;11.73;100.00
53546;BME280;39432;51.902;10.844;2023-06-14T03:24:00;99695.50;;;11.89;100.00
53546;BME280;39432;51.902;10.844;2023-06-14T03:26:32;99693.84;;;11.55;100.00
53546;BME280;39432;51.902;10.844;2023-06-14T03:29:04;99692.84;;;11.34;100.00
53546;BME280;39432;51.902;10.844;2023-06-14T03:31:34;99693.47;;;11.47;100.00
53546;BME280;39432;51.902;10.844;2023-06-14T03:34:05;99701.38;;;11.75;100.00
53546;BME280;39432;51.902;10.844;2023-06-14T03:36:35;99703.16;;;11.92;100.00
53546;BME280;39432;51.902;10.844;2023-06-14T03:39:08;99696.38;;;12.57;100.00
53546;BME280;39432;51.902;10.844;2023-06-14T03:41:38;99696.09;;;12.48;100.00
53546;BME280;39432;51.902;10.844;2023-06-14T03:44:09;99700.50;;;12.54;100.00
53546;BME280;39432;51.902;10.844;2023-06-14T03:46:39;99697.16;;;13.40;100.00
53546;BME280;39432;51.902;10.844;2023-06-14T03:49:09;99701.84;;;13.60;100.00
53546;BME280;39432;51.902;10.844;2023-06-14T03:51:39;99704.81;;;14.10;100.00
53546;BME280;39432;51.902;10.844;2023-06-14T03:54:12;99698.81;;;13.82;100.00
53546;BME280;39432;51.902;10.844;2023-06-14T03:56:46;99695.13;;;14.22;100.00
53546;BME280;39432;51.902;10.844;2023-06-14T03:59:16;99702.47;;;14.68;100.00
53546;BME280;39432;51.902;10.844;2023-06-14T04:01:46;99703.72;;;14.06;100.00
53546;BME280;39432;51.902;10.844;2023-06-14T04:04:16;99709.81;;;13.67;100.00
53546;BME280;39432;51.902;10.844;2023-06-14T04:06:46;99707.06;;;13.67;100.00
53546;BME280;39432;51.902;10.844;2023-06-14T04:09:19;99710.78;;;12.89;100.00
53546;BME280;39432;51.902;10.844;2023-06-14T04:11:50;99713.66;;;13.51;100.00
53546;BME280;39432;51.902;10.844;2023-06-14T04:14:23;99713.09;;;13.43;100.00
53546;BME280;39432;51.902;10.844;2023-06-14T04:16:53;99722.44;;;13.83;100.00
53546;BME280;39432;51.902;10.844;2023-06-14T04:19:23;99712.41;;;14.43;100.00
53546;BME280;39432;51.902;10.844;2023-06-14T04:21:53;99713.91;;;14.90;100.00
53546;BME280;39432;51.902;10.844;2023-06-14T04:24:27;99708.53;;;14.60;100.00
53546;BME280;39432;51.902;10.844;2023-06-14T04:26:59;99717.47;;;14.11;100.00
53546;BME280;39432;51.902;10.844;2023-06-14T04:29:30;99711.00;;;14.61;100.00
53546;BME280;39432;51.902;10.844;2023-06-14T04:32:05;99712.41;;;14.54;100.00
53546;BME280;39432;51.902;10.844;2023-06-14T04:34:37;99711.44;;;15.33;100.00
53546;BME280;39432;51.902;10.844;2023-06-14T04:37:08;99705.38;;;16.04;100.00
53546;BME280;39432;51.902;10.844;2023-06-14T04:39:43;99711.88;;;16.14;100.00
53546;BME280;39432;51.902;10.844;2023-06-14T04:42:13;99713.91;;;16.03;100.00
53546;BME280;39432;51.902;10.844;2023-06-14T04:44:43;99719.91;;;16.39;99.25
53546;BME280;39432;51.902;10.844;2023-06-14T04:47:14;99722.69;;;16.10;99.58
53546;BME280;39432;51.902;10.844;2023-06-14T04:49:44;99704.53;;;17.00;94.82
53546;BME280;39432;51.902;10.844;2023-06-14T04:52:14;99715.88;;;17.17;89.97
53546;BME280;39432;51.902;10.844;2023-06-14T04:54:47;99719.28;;;16.42;94.18
53546;BME280;39432;51.902;10.844;2023-06-14T04:57:19;99711.91;;;17.23;90.65
53546;BME280;39432;51.902;10.844;2023-06-14T04:59:50;99714.81;;;17.51;91.59
53546;BME280;39432;51.902;10.844;2023-06-14T05:02:24;99709.94;;;18.27;88.17
53546;BME280;39432;51.902;10.844;2023-06-14T05:04:58;99716.97;;;18.05;84.13
53546;BME280;39432;51.902;10.844;2023-06-14T05:07:29;99731.81;;;17.44;81.09
53546;BME280;39432;51.902;10.844;2023-06-14T05:10:04;99723.78;;;18.27;85.21
53546;BME280;39432;51.902;10.844;2023-06-14T05:12:35;99712.94;;;18.85;84.47
53546;BME280;39432;51.902;10.844;2023-06-14T05:15:08;99719.47;;;18.34;82.76
53546;BME280;39432;51.902;10.844;2023-06-14T05:17:38;99725.34;;;17.68;83.72
53546;BME280;39432;51.902;10.844;2023-06-14T05:20:09;99715.59;;;17.89;84.80
53546;BME280;39432;51.902;10.844;2023-06-14T05:22:40;99723.94;;;17.51;85.90
53546;BME280;39432;51.902;10.844;2023-06-14T05:25:13;99722.34;;;19.48;80.54
53546;BME280;39432;51.902;10.844;2023-06-14T05:27:43;99731.66;;;19.30;77.64
53546;BME280;39432;51.902;10.844;2023-06-14T05:30:14;99727.03;;;17.31;85.12
53546;BME280;39432;51.902;10.844;2023-06-14T05:32:45;99739.66;;;19.31;81.57
53546;BME280;39432;51.902;10.844;2023-06-14T05:35:15;99745.63;;;17.82;80.27
53546;BME280;39432;51.902;10.844;2023-06-14T05:37:45;99743.16;;;18.27;80.13
53546;BME280;39432;51.902;10.844;2023-06-14T05:40:17;99742.53;;;19.40;76.57
53546;BME280;39432;51.902;10.844;2023-06-14T05:42:47;99751.28;;;19.92;75.25
53546;BME280;39432;51.902;10.844;2023-06-14T05:45:17;99759.22;;;18.99;73.71
53546;BME280;39432;51.902;10.844;2023-06-14T05:47:47;99755.09;;;19.10;78.49
53546;BME280;39432;51.902;10.844;2023-06-14T05:50:17;99755.16;;;18.96;79.33
53546;BME280;39432;51.902;10.844;2023-06-14T05:52:53;99752.47;;;19.77;77.26
53546;BME280;39432;51.902;10.844;2023-06-14T05:55:26;99752.28;;;19.73;73.44
53546;BME280;39432;51.902;10.844;2023-06-14T05:57:56;99763.88;;;18.29;80.10
53546;BME280;39432;51.902;10.844;2023-06-14T06:00:26;99761.78;;;18.95;78.86
53546;BME280;39432;51.902;10.844;2023-06-14T06:02:56;99756.84;;;19.69;78.21
53546;BME280;39432;51.902;10.844;2023-06-14T06:05:28;99766.19;;;20.27;74.27
53546;BME280;39432;51.902;10.844;2023-06-14T06:07:58;99760.09;;;19.35;74.75
53546;BME280;39432;51.902;10.844;2023-06-14T06:10:30;99759.75;;;19.51;75.18
53546;BME280;39432;51.902;10.844;2023-06-14T06:13:00;99753.03;;;19.15;76.83
53546;BME280;39432;51.902;10.844;2023-06-14T06:15:30;99760.19;;;20.03;76.73
53546;BME280;39432;51.902;10.844;2023-06-14T06:18:00;99765.47;;;18.49;76.40
53546;BME280;39432;51.902;10.844;2023-06-14T06:20:30;99761.91;;;19.04;79.43
53546;BME280;39432;51.902;10.844;2023-06-14T06:23:00;99765.56;;;20.30;73.92
53546;BME280;39432;51.902;10.844;2023-06-14T06:25:32;99765.94;;;19.34;75.43
53546;BME280;39432;51.902;10.844;2023-06-14T06:28:02;99778.28;;;19.28;76.53
53546;BME280;39432;51.902;10.844;2023-06-14T06:30:32;99777.47;;;19.77;74.28
53546;BME280;39432;51.902;10.844;2023-06-14T06:33:02;99773.81;;;19.54;73.81
53546;BME280;39432;51.902;10.844;2023-06-14T06:35:32;99779.06;;;20.76;70.57
53546;BME280;39432;51.902;10.844;2023-06-14T06:38:02;99782.56;;;20.91;68.25
53546;BME280;39432;51.902;10.844;2023-06-14T06:40:35;99785.31;;;19.97;69.87
53546;BME280;39432;51.902;10.844;2023-06-14T06:43:05;99771.09;;;21.58;65.28
53546;BME280;39432;51.902;10.844;2023-06-14T06:45:41;99786.16;;;21.48;64.85
53546;BME280;39432;51.902;10.844;2023-06-14T06:48:11;99795.41;;;19.07;67.73
53546;BME280;39432;51.902;10.844;2023-06-14T06:50:40;99783.81;;;20.76;72.04
53546;BME280;39432;51.902;10.844;2023-06-14T06:53:10;99790.44;;;20.35;69.22
53546;BME280;39432;51.902;10.844;2023-06-14T06:55:52;99787.38;;;20.68;70.80
53546;BME280;39432;51.902;10.844;2023-06-14T06:58:22;99785.63;;;20.81;69.17
53546;BME280;39432;51.902;10.844;2023-06-14T07:00:51;99793.81;;;19.79;67.55
53546;BME280;39432;51.902;10.844;2023-06-14T07:03:21;99778.78;;;22.04;65.15
53546;BME280;39432;51.902;10.844;2023-06-14T07:05:51;99796.34;;;21.88;63.49
53546;BME280;39432;51.902;10.844;2023-06-14T07:08:21;99799.88;;;20.03;66.84
53546;BME280;39432;51.902;10.844;2023-06-14T07:10:53;99801.59;;;19.90;67.95
53546;BME280;39432;51.902;10.844;2023-06-14T07:13:23;99802.09;;;20.15;69.46
53546;BME280;39432;51.902;10.844;2023-06-14T07:15:57;99802.47;;;20.22;67.15
53546;BME280;39432;51.902;10.844;2023-06-14T07:18:28;99805.50;;;20.34;67.11
53546;BME280;39432;51.902;10.844;2023-06-14T07:20:58;99801.31;;;21.16;62.72
53546;BME280;39432;51.902;10.844;2023-06-14T07:23:28;99805.28;;;20.31;65.95
53546;BME280;39432;51.902;10.844;2023-06-14T07:26:00;99807.88;;;19.46;71.51
53546;BME280;39432;51.902;10.844;2023-06-14T07:28:30;99801.31;;;21.16;67.99
53546;BME280;39432;51.902;10.844;2023-06-14T07:31:00;99801.56;;;20.97;65.61
53546;BME280;39432;51.902;10.844;2023-06-14T07:33:30;99804.09;;;21.16;65.61
53546;BME280;39432;51.902;10.844;2023-06-14T07:36:00;99811.56;;;21.55;62.30
53546;BME280;39432;51.902;10.844;2023-06-14T07:38:30;99815.91;;;21.30;60.26
53546;BME280;39432;51.902;10.844;2023-06-14T07:41:02;99801.97;;;18.84;74.11
53546;BME280;39432;51.902;10.844;2023-06-14T07:43:32;99803.66;;;20.92;67.08
53546;BME280;39432;51.902;10.844;2023-06-14T07:46:04;99814.47;;;18.35;69.04
53546;BME280;39432;51.902;10.844;2023-06-14T07:48:36;99800.22;;;19.15;73.47
53546;BME280;39432;51.902;10.844;2023-06-14T07:51:06;99804.41;;;20.44;68.08
53546;BME280;39432;51.902;10.844;2023-06-14T07:53:36;99798.16;;;19.21;67.95
53546;BME280;39432;51.902;10.844;2023-06-14T07:56:08;99792.81;;;19.74;66.77
53546;BME280;39432;51.902;10.844;2023-06-14T07:58:38;99790.94;;;19.84;68.04
53546;BME280;39432;51.902;10.844;2023-06-14T08:01:08;99789.59;;;19.31;68.86
53546;BME280;39432;51.902;10.844;2023-06-14T08:03:39;99798.56;;;18.27;71.31
53546;BME280;39432;51.902;10.844;2023-06-14T08:06:09;99795.56;;;19.25;70.01
53546;BME280;39432;51.902;10.844;2023-06-14T08:08:39;99792.03;;;19.60;68.93
53546;BME280;39432;51.902;10.844;2023-06-14T08:11:11;99793.97;;;18.68;70.75
53546;BME280;39432;51.902;10.844;2023-06-14T08:13:41;99798.47;;;19.69;68.34
53546;BME280;39432;51.902;10.844;2023-06-14T08:16:11;99788.97;;;20.38;66.03
53546;BME280;39432;51.902;10.844;2023-06-14T08:18:41;99791.63;;;21.05;62.83
53546;BME280;39432;51.902;10.844;2023-06-14T08:21:11;99806.00;;;19.69;63.00
53546;BME280;39432;51.902;10.844;2023-06-14T08:23:41;99801.38;;;19.87;65.38
53546;BME280;39432;51.902;10.844;2023-06-14T08:26:14;99806.00;;;18.45;68.47
53546;BME280;39432;51.902;10.844;2023-06-14T08:28:44;99812.66;;;19.54;65.32
53546;BME280;39432;51.902;10.844;2023-06-14T08:31:14;99800.19;;;19.79;62.20
53546;BME280;39432;51.902;10.844;2023-06-14T08:33:43;99805.81;;;21.03;60.54
53546;BME280;39432;51.902;10.844;2023-06-14T08:36:14;99814.69;;;20.66;59.68
53546;BME280;39432;51.902;10.844;2023-06-14T08:38:44;99794.34;;;21.45;57.05
53546;BME280;39432;51.902;10.844;2023-06-14T08:41:21;99794.25;;;21.10;59.21
53546;BME280;39432;51.902;10.844;2023-06-14T08:43:52;99799.25;;;20.29;60.61
53546;BME280;39432;51.902;10.844;2023-06-14T08:46:25;99806.94;;;20.32;61.43
53546;BME280;39432;51.902;10.844;2023-06-14T08:48:55;99795.56;;;21.13;61.99
53546;BME280;39432;51.902;10.844;2023-06-14T08:51:27;99792.31;;;21.28;56.99
53546;BME280;39432;51.902;10.844;2023-06-14T08:54:01;99796.31;;;21.53;56.91
53546;BME280;39432;51.902;10.844;2023-06-14T08:56:37;99794.16;;;20.53;57.12
53546;BME280;39432;51.902;10.844;2023-06-14T08:59:09;99788.34;;;20.41;58.70
53546;BME280;39432;51.902;10.844;2023-06-14T09:01:39;99802.69;;;20.88;58.59
53546;BME280;39432;51.902;10.844;2023-06-14T09:04:29;99793.19;;;20.04;61.59
53546;BME280;39432;51.902;10.844;2023-06-14T09:07:00;99791.63;;;19.89;63.33
53546;BME280;39432;51.902;10.844;2023-06-14T09:09:38;99792.47;;;20.74;62.97
53546;BME280;39432;51.902;10.844;2023-06-14T09:12:31;99809.59;;;20.37;61.42
53546;BME280;39432;51.902;10.844;2023-06-14T09:15:00;99807.47;;;19.89;62.47
53546;BME280;39432;51.902;10.844;2023-06-14T09:17:33;99799.25;;;20.06;62.18
53546;BME280;39432;51.902;10.844;2023-06-14T09:20:05;99795.59;;;19.97;62.73
53546;BME280;39432;51.902;10.844;2023-06-14T09:22:36;99802.84;;;20.29;62.55
53546;BME280;39432;51.902;10.844;2023-06-14T09:25:07;99794.50;;;19.62;60.76
53546;BME280;39432;51.902;10.844;2023-06-14T09:27:57;99805.44;;;19.81;58.37
53546;BME280;39432;51.902;10.844;2023-06-14T09:30:28;99803.31;;;20.22;59.44
53546;BME280;39432;51.902;10.844;2023-06-14T09:32:59;99807.19;;;20.21;60.10
53546;BME280;39432;51.902;10.844;2023-06-14T09:35:30;99806.63;;;20.11;61.08
53546;BME280;39432;51.902;10.844;2023-06-14T09:38:01;99803.00;;;21.35;61.28
53546;BME280;39432;51.902;10.844;2023-06-14T09:40:33;99809.41;;;21.44;58.37
53546;BME280;39432;51.902;10.844;2023-06-14T09:43:07;99818.66;;;21.22;58.33
53546;BME280;39432;51.902;10.844;2023-06-14T09:45:38;99829.97;;;20.77;58.56
53546;BME280;39432;51.902;10.844;2023-06-14T09:48:12;99825.31;;;20.41;59.95
53546;BME280;39432;51.902;10.844;2023-06-14T09:50:45;99808.47;;;19.57;62.61
53546;BME280;39432;51.902;10.844;2023-06-14T09:53:20;99816.28;;;20.89;60.85
53546;BME280;39432;51.902;10.844;2023-06-14T09:55:52;99798.97;;;20.61;59.96
53546;BME280;39432;51.902;10.844;2023-06-14T09:58:26;99793.59;;;20.11;60.46
53546;BME280;39432;51.902;10.844;2023-06-14T10:00:58;99810.25;;;20.34;59.51
53546;BME280;39432;51.902;10.844;2023-06-14T10:03:30;99794.16;;;21.41;59.78
53546;BME280;39432;51.902;10.844;2023-06-14T10:06:22;99807.00;;;21.11;58.55
53546;BME280;39432;51.902;10.844;2023-06-14T10:08:56;99809.31;;;20.69;58.54
53546;BME280;39432;51.902;10.844;2023-06-14T10:11:27;99798.41;;;19.83;60.48
53546;BME280;39432;51.902;10.844;2023-06-14T10:14:01;99799.88;;;19.81;62.07
53546;BME280;39432;51.902;10.844;2023-06-14T10:16:34;99804.38;;;20.13;61.70
53546;BME280;39432;51.902;10.844;2023-06-14T10:19:11;99805.03;;;20.41;61.05
53546;BME280;39432;51.902;10.844;2023-06-14T10:21:47;99799.72;;;20.93;59.38
53546;BME280;39432;51.902;10.844;2023-06-14T10:24:28;99802.25;;;20.41;59.60
53546;BME280;39432;51.902;10.844;2023-06-14T10:26:59;99791.78;;;20.15;60.43
53546;BME280;39432;51.902;10.844;2023-06-14T10:29:32;99787.47;;;21.68;59.00
53546;BME280;39432;51.902;10.844;2023-06-14T10:32:02;99791.28;;;21.07;59.23
53546;BME280;39432;51.902;10.844;2023-06-14T10:34:32;99801.63;;;20.75;59.37
53546;BME280;39432;51.902;10.844;2023-06-14T10:37:04;99782.75;;;21.03;61.00
53546;BME280;39432;51.902;10.844;2023-06-14T10:39:38;99792.59;;;21.09;59.36
53546;BME280;39432;51.902;10.844;2023-06-14T10:42:08;99779.59;;;22.05;59.05
53546;BME280;39432;51.902;10.844;2023-06-14T10:44:45;99771.22;;;21.96;58.92
53546;BME280;39432;51.902;10.844;2023-06-14T10:47:23;99782.56;;;21.65;58.72
53546;BME280;39432;51.902;10.844;2023-06-14T10:49:55;99779.84;;;21.25;59.56
53546;BME280;39432;51.902;10.844;2023-06-14T10:52:29;99774.25;;;21.08;59.96
53546;BME280;39432;51.902;10.844;2023-06-14T10:57:41;99769.41;;;20.74;60.52
53546;BME280;39432;51.902;10.844;2023-06-14T11:00:21;99768.25;;;20.66;61.74
53546;BME280;39432;51.902;10.844;2023-06-14T11:03:24;99773.06;;;21.49;59.62
53546;BME280;39432;51.902;10.844;2023-06-14T11:05:58;99759.63;;;21.68;58.90
53546;BME280;39432;51.902;10.844;2023-06-14T11:09:02;99763.59;;;21.01;60.55
53546;BME280;39432;51.902;10.844;2023-06-14T11:11:38;99758.16;;;21.88;59.36
53546;BME280;39432;51.902;10.844;2023-06-14T11:14:11;99759.94;;;22.10;58.13
53546;BME280;39432;51.902;10.844;2023-06-14T11:16:47;99757.66;;;21.77;57.62
53546;BME280;39432;51.902;10.844;2023-06-14T11:19:17;99774.34;;;21.34;59.84
53546;BME280;39432;51.902;10.844;2023-06-14T11:21:47;99760.78;;;21.76;58.43
53546;BME280;39432;51.902;10.844;2023-06-14T11:24:17;99753.06;;;21.47;59.46
53546;BME280;39432;51.902;10.844;2023-06-14T11:26:47;99742.41;;;22.95;57.89
53546;BME280;39432;51.902;10.844;2023-06-14T11:29:20;99732.47;;;23.35;56.27
53546;BME280;39432;51.902;10.844;2023-06-14T11:31:53;99734.09;;;23.78;53.13
53546;BME280;39432;51.902;10.844;2023-06-14T11:34:22;99740.63;;;22.52;55.44
53546;BME280;39432;51.902;10.844;2023-06-14T11:36:54;99739.97;;;21.82;57.68
53546;BME280;39432;51.902;10.844;2023-06-14T11:39:24;99753.56;;;21.57;57.81
53546;BME280;39432;51.902;10.844;2023-06-14T11:41:54;99752.56;;;21.36;58.59
53546;BME280;39432;51.902;10.844;2023-06-14T11:44:28;99751.88;;;21.22;59.13
53546;BME280;39432;51.902;10.844;2023-06-14T11:47:03;99753.22;;;21.50;59.01
53546;BME280;39432;51.902;10.844;2023-06-14T11:49:35;99743.53;;;22.00;58.60
53546;BME280;39432;51.902;10.844;2023-06-14T11:52:05;99740.81;;;22.47;56.58
53546;BME280;39432;51.902;10.844;2023-06-14T11:54:35;99742.22;;;22.06;56.66
53546;BME280;39432;51.902;10.844;2023-06-14T11:57:07;99738.81;;;21.83;57.85
53546;BME280;39432;51.902;10.844;2023-06-14T11:59:38;99741.06;;;22.07;57.49
53546;BME280;39432;51.902;10.844;2023-06-14T12:02:14;99746.00;;;21.84;58.00
53546;BME280;39432;51.902;10.844;2023-06-14T12:04:44;99739.22;;;22.28;57.92
53546;BME280;39432;51.902;10.844;2023-06-14T12:07:16;99727.81;;;22.59;56.20
53546;BME280;39432;51.902;10.844;2023-06-14T12:10:06;99734.84;;;22.57;56.72
53546;BME280;39432;51.902;10.844;2023-06-14T12:12:38;99731.72;;;22.20;58.37
53546;BME280;39432;51.902;10.844;2023-06-14T12:15:09;99724.53;;;21.84;58.56
53546;BME280;39432;51.902;10.844;2023-06-14T12:17:44;99726.28;;;22.24;58.45
53546;BME280;39432;51.902;10.844;2023-06-14T12:20:15;99726.19;;;21.77;59.24
53546;BME280;39432;51.902;10.844;2023-06-14T12:22:51;99727.81;;;22.51;59.16
53546;BME280;39432;51.902;10.844;2023-06-14T12:25:24;99723.56;;;22.92;57.90
53546;BME280;39432;51.902;10.844;2023-06-14T12:27:58;99727.00;;;22.50;57.73
53546;BME280;39432;51.902;10.844;2023-06-14T12:30:29;99725.66;;;22.18;57.30
53546;BME280;39432;51.902;10.844;2023-06-14T12:33:01;99720.34;;;22.34;56.47
53546;BME280;39432;51.902;10.844;2023-06-14T12:35:31;99719.69;;;22.75;56.58
53546;BME280;39432;51.902;10.844;2023-06-14T12:38:01;99739.81;;;22.51;57.84
53546;BME280;39432;51.902;10.844;2023-06-14T12:40:31;99725.31;;;22.02;59.29
53546;BME280;39432;51.902;10.844;2023-06-14T12:43:03;99733.25;;;21.66;59.28
53546;BME280;39432;51.902;10.844;2023-06-14T12:45:32;99731.09;;;21.37;59.72
53546;BME280;39432;51.902;10.844;2023-06-14T12:48:05;99731.28;;;21.66;59.54
53546;BME280;39432;51.902;10.844;2023-06-14T12:50:37;99724.56;;;21.67;59.20
53546;BME280;39432;51.902;10.844;2023-06-14T12:53:07;99728.34;;;21.45;59.73
53546;BME280;39432;51.902;10.844;2023-06-14T12:55:37;99729.63;;;21.82;60.84
53546;BME280;39432;51.902;10.844;2023-06-14T12:58:07;99723.13;;;22.43;58.51
53546;BME280;39432;51.902;10.844;2023-06-14T13:00:39;99724.34;;;22.62;55.91
53546;BME280;39432;51.902;10.844;2023-06-14T13:03:12;99714.75;;;22.43;56.00
53546;BME280;39432;51.902;10.844;2023-06-14T13:05:42;99718.19;;;22.40;56.99
53546;BME280;39432;51.902;10.844;2023-06-14T13:08:12;99737.31;;;21.86;57.50
53546;BME280;39432;51.902;10.844;2023-06-14T13:10:42;99724.69;;;21.97;57.34
53546;BME280;39432;51.902;10.844;2023-06-14T13:13:12;99712.88;;;22.17;55.60